Featured Flight

MET2089 - Boston to Chicago

Embraer ERJ-170LR
N912AH
2 hrs 00 mins
752 nm
Scheduled - Daily

Bid/PiRep Status

Bid was submitted on Jan 05 2017.

PiRep # 74611: Approved by Sean Doyle on January 6th, 2017 3:52 UTC

Departure

Departing from
Boston (BOS)
Departure gate
Scheduled Departure
GMT 1530
Local 1030
METAR KBOS 220554Z 21010KT 10SM FEW090 OVC130 03/M01 A3009 RMK AO2 SLP189 T00331006 10044 20028 57024
TAF KBOS 220522Z 2206/2312 21007KT P6SM BKN120 FM221500 19004KT P6SM SCT250 FM230300 24004KT P6SM SCT040
  • No charts available

Arrival

Arriving at
Chicago (ORD)
Arrival gate
Scheduled Arrival
GMT 1730
Local 1130
METAR KORD 220603Z 19005KT 5SM BR BKN030 BKN036 11/10 A2984 RMK AO2 T01110100
TAF KORD 220540Z 2206/2312 21004KT 4SM BR BKN025 TEMPO 2206/2209 BKN003 FM220900 21004KT 2SM BR BKN003 FM221430 21010KT P6SM SCT005 FM221800 20015G25KT P6SM SKC FM222300 24010KT P6SM SKC FM230700 29008KT P6SM SCT250

Route Map

Planning Resources

KBWI J518 J82 KORD
TERPZ2 BUFFR OXI4 BSV MOBLE HIMGO NOLEN KEWDE VULCN CASEN RIDGE PALIE JOGBO FIX 21
BUFFR IHD53 IHD AVERE LIVER DJB MAYZE ASHEN GSH HOBAR
BAL J518 DJB
TERPZ6.MCRAY J518 AVERE J152 TRAKK J30 FWA25 WATSN2.FWA
Route:
OFP Layout:
Units:
Detailed Navlog:
ETOPS Planning:
Plan Stepclimbs:
Runway Analysis:
Include NOTAMS:
FIR NOTAMS:
Flight Maps:

Return Flights

MET126
Boeing 777-300ER
0300 GMT
MET688
Airbus A319-131
1300 GMT
MET2080
Embraer ERJ-170LR
1200 GMT
MET2082
Embraer ERJ-170LR
1700 GMT
MET2084
Embraer ERJ-170LR
2200 GMT
MET2086
Embraer ERJ-170LR
0300 GMT
MET2088
Embraer ERJ-170LR
1300 GMT
MET2092
Embraer ERJ-170LR
2300 GMT
MET2094
Embraer ERJ-170LR
0400 GMT
MET2096
Embraer ERJ-170LR
1400 GMT
MET2098
Embraer ERJ-170LR
1900 GMT
MET3000
Embraer ERJ-170LR
0000 GMT
MET3002
Embraer ERJ-170LR
0500 GMT
MET3004
Embraer ERJ-170LR
1500 GMT
MET3006
Embraer ERJ-170LR
2000 GMT
MET3008
Embraer ERJ-170LR
0100 GMT
MET3010
Embraer ERJ-170LR
1600 GMT
MET3012
Embraer ERJ-170LR
2100 GMT
MET3014
Embraer ERJ-170LR
0200 GMT

Popularity

Hub Current Bids PiReps this month Total PiReps
KMCI 0 0 0
KLAX 0 0 0
KBOS 0 0 1